Time;durP1;ratioP1;P1;durP2;ratioP2;P2;SDS_P1;SDS_P2;PMS_P1;PMS_P2;Temp;Humidity;BMP_temperature;BMP_pressure;BME280_temperature;BME280_humidity;BME280_pressure;Samples;Min_cycle;Max_cycle;Signal;HPM_P1;HPM_P2
2021/11/30 00:01:48;;;;;;;16.00;9.30;;;;;;;1.50;94.54;100042.98;102266;1315;62108;-75
2021/11/30 00:04:16;;;;;;;17.80;10.20;;;;;;;1.52;94.45;100040.89;102242;1316;76233;-77
2021/11/30 00:06:45;;;;;;;18.10;8.50;;;;;;;1.53;94.39;100039.08;102268;1315;72822;-78
2021/11/30 00:12:08;;;;;;;15.00;8.20;;;;;;;1.57;94.34;100032.81;102248;1315;62135;-78
2021/11/30 00:14:38;;;;;;;19.70;9.90;;;;;;;1.60;94.46;100032.70;102406;1316;62133;-78
2021/11/30 00:17:06;;;;;;;19.10;10.60;;;;;;;1.64;94.37;100031.54;102681;1315;76813;-79
2021/11/30 00:19:34;;;;;;;17.30;9.30;;;;;;;1.67;94.43;100028.98;102965;1316;72424;-76
2021/11/30 00:22:03;;;;;;;16.20;9.80;;;;;;;1.70;94.35;100019.15;102325;1315;72976;-76
2021/11/30 00:24:30;;;;;;;22.10;11.40;;;;;;;1.73;94.57;100008.95;103472;1315;62415;-77
2021/11/30 00:26:58;;;;;;;21.30;9.90;;;;;;;1.77;94.63;100011.34;102235;1315;62134;-76
2021/11/30 00:29:26;;;;;;;30.20;13.50;;;;;;;1.81;94.68;100011.58;102181;1315;76918;-76
2021/11/30 00:31:53;;;;;;;22.80;11.90;;;;;;;1.83;94.75;100011.00;102283;1315;71266;-77
2021/11/30 00:34:20;;;;;;;20.80;11.20;;;;;;;1.87;94.86;100002.34;102242;1316;72707;-77
2021/11/30 00:36:48;;;;;;;19.00;9.80;;;;;;;1.89;94.89;99998.13;102129;1316;62114;-76
2021/11/30 00:39:15;;;;;;;27.80;13.30;;;;;;;1.90;94.96;99992.10;102123;1315;62178;-77
2021/11/30 00:41:47;;;;;;;22.60;11.90;;;;;;;1.92;95.29;99991.89;102376;1316;75559;-76
2021/11/30 00:44:16;;;;;;;24.80;12.20;;;;;;;1.93;95.42;99992.33;102173;1315;71680;-79
2021/11/30 00:46:47;;;;;;;24.40;12.90;;;;;;;1.95;95.88;99995.15;102538;1319;72702;-80
2021/11/30 00:49:14;;;;;;;19.00;10.60;;;;;;;1.96;95.98;99997.80;102688;1306;62620;-79
2021/11/30 00:51:43;;;;;;;20.80;10.90;;;;;;;1.99;96.20;99987.15;102315;1316;63096;-78
2021/11/30 00:54:14;;;;;;;17.60;10.00;;;;;;;2.02;96.06;99987.04;102990;1315;75772;-76
2021/11/30 00:56:44;;;;;;;23.80;12.60;;;;;;;2.03;96.34;99981.28;102312;1309;72412;-76
2021/11/30 00:59:11;;;;;;;22.50;13.50;;;;;;;2.05;96.79;99972.12;102239;1315;74010;-75
2021/11/30 01:01:39;;;;;;;30.30;13.70;;;;;;;2.08;96.93;99967.71;102135;1315;62405;-78
2021/11/30 01:04:11;;;;;;;22.60;12.60;;;;;;;2.11;97.22;99960.80;102249;1316;63364;-77
2021/11/30 01:06:38;;;;;;;35.60;14.40;;;;;;;2.12;97.07;99960.83;102142;1315;76926;-76
2021/11/30 01:09:08;;;;;;;32.30;14.40;;;;;;;2.14;97.55;99956.64;102084;1317;71445;-77
2021/11/30 01:11:38;;;;;;;25.50;12.00;;;;;;;2.16;97.69;99954.56;102049;1316;73642;-77
2021/11/30 01:14:07;;;;;;;22.90;11.00;;;;;;;2.18;97.90;99955.63;102183;1315;62166;-77
2021/11/30 01:16:35;;;;;;;22.10;12.10;;;;;;;2.19;98.03;99952.34;102030;1315;62097;-77
2021/11/30 01:19:06;;;;;;;29.20;14.20;;;;;;;2.21;98.02;99953.41;102116;1315;76746;-77
2021/11/30 01:21:35;;;;;;;23.60;11.00;;;;;;;2.23;98.11;99959.13;102194;1315;71381;-78
2021/11/30 01:24:03;;;;;;;24.30;12.00;;;;;;;2.25;98.17;99961.06;102179;1315;72885;-76
2021/11/30 01:26:30;;;;;;;27.90;12.50;;;;;;;2.27;97.98;99963.55;102139;1316;62214;-76
2021/11/30 01:28:57;;;;;;;26.60;13.50;;;;;;;2.28;97.96;99959.19;102155;1315;63354;-79
2021/11/30 01:31:25;;;;;;;25.10;12.90;;;;;;;2.31;97.93;99948.86;102421;1316;75406;-76
2021/11/30 01:33:52;;;;;;;23.30;9.40;;;;;;;2.34;98.03;99929.58;102216;1315;72863;-76
2021/11/30 01:36:19;;;;;;;26.90;13.70;;;;;;;2.34;97.90;99924.29;101733;1316;73090;-76
2021/11/30 01:38:49;;;;;;;25.30;13.10;;;;;;;2.35;98.22;99923.35;102035;1315;62261;-77
2021/11/30 01:41:16;;;;;;;25.60;11.90;;;;;;;2.37;97.93;99920.14;102105;1315;62474;-77
2021/11/30 01:43:44;;;;;;;25.20;12.90;;;;;;;2.41;98.09;99922.02;101956;1316;75754;-76
2021/11/30 01:51:31;;;;;;;18.50;9.90;;;;;;;2.56;97.45;99905.04;101960;1316;62482;-78
2021/11/30 01:53:58;;;;;;;19.20;8.70;;;;;;;2.59;97.23;99898.25;101853;1317;62191;-74
2021/11/30 01:56:25;;;;;;;21.50;10.20;;;;;;;2.63;97.18;99898.94;102157;1315;75962;-76
2021/11/30 01:58:53;;;;;;;20.60;10.10;;;;;;;2.67;97.10;99891.80;102094;1316;72439;-76
2021/11/30 02:01:21;;;;;;;18.20;10.40;;;;;;;2.70;96.64;99889.55;102107;1315;74154;-74
2021/11/30 02:03:48;;;;;;;21.90;10.50;;;;;;;2.74;96.22;99880.25;102159;1316;62139;-76
2021/11/30 02:06:16;;;;;;;16.60;8.20;;;;;;;2.78;95.76;99869.09;102087;1315;62114;-76
2021/11/30 02:08:43;;;;;;;18.80;9.80;;;;;;;2.80;95.66;99854.72;102099;1315;76702;-76
2021/11/30 02:11:10;;;;;;;12.80;6.40;;;;;;;2.83;95.45;99858.45;102515;1306;71511;-77
2021/11/30 02:13:36;;;;;;;17.50;9.40;;;;;;;2.86;94.82;99855.52;102109;1316;74249;-77
2021/11/30 02:16:08;;;;;;;15.50;8.00;;;;;;;2.89;94.97;99859.66;102245;1315;62235;-74
2021/11/30 02:18:42;;;;;;;14.80;7.50;;;;;;;2.91;94.76;99856.02;102199;1317;62292;-76
2021/11/30 02:21:09;;;;;;;11.70;6.80;;;;;;;2.92;94.47;99854.80;102288;1315;77235;-77
2021/11/30 02:26:11;;;;;;;12.90;6.70;;;;;;;2.97;93.83;99853.99;102375;1316;72065;-76
2021/11/30 02:28:41;;;;;;;16.40;7.80;;;;;;;2.97;94.16;99849.96;102217;1306;62301;-76
2021/11/30 02:31:10;;;;;;;13.20;6.30;;;;;;;2.96;94.12;99855.17;102053;1316;62810;-78
2021/11/30 02:33:38;;;;;;;10.20;6.50;;;;;;;2.93;93.92;99857.42;104741;1301;75636;-77
2021/11/30 02:36:49;;;;;;;8.40;5.30;;;;;;;2.90;94.55;99851.21;102984;1303;71907;-76
2021/11/30 02:39:22;;;;;;;8.40;5.00;;;;;;;2.85;95.22;99844.46;102237;1315;72966;-76
2021/11/30 02:41:51;;;;;;;7.40;3.60;;;;;;;2.81;95.36;99829.13;102240;1303;62787;-75
2021/11/30 02:44:21;;;;;;;7.10;4.40;;;;;;;2.76;95.81;99819.31;102157;1315;62183;-74
2021/11/30 02:46:55;;;;;;;8.30;4.70;;;;;;;2.72;96.17;99807.68;102045;1316;76765;-76
2021/11/30 02:49:25;;;;;;;6.30;3.70;;;;;;;2.68;96.35;99796.70;101964;1315;71862;-75
2021/11/30 02:52:01;;;;;;;8.50;4.90;;;;;;;2.66;96.74;99792.52;102077;1316;73993;-75
2021/11/30 02:54:28;;;;;;;8.40;4.00;;;;;;;2.63;96.78;99782.53;102450;1313;62192;-76
2021/11/30 02:56:58;;;;;;;9.60;5.70;;;;;;;2.61;96.90;99777.61;102077;1316;62112;-75
2021/11/30 02:59:27;;;;;;;6.70;3.70;;;;;;;2.60;97.11;99784.17;102090;1315;75904;-78
2021/11/30 03:01:57;;;;;;;7.80;4.00;;;;;;;2.59;97.33;99770.31;102386;1309;72458;-75
2021/11/30 03:04:25;;;;;;;8.40;4.60;;;;;;;2.58;97.61;99761.47;102084;1316;71922;-76
2021/11/30 03:06:53;;;;;;;5.90;4.30;;;;;;;2.55;97.72;99758.78;102143;1316;62250;-76
2021/11/30 03:09:20;;;;;;;7.70;4.80;;;;;;;2.53;97.62;99758.14;102338;1303;62102;-76
2021/11/30 03:11:48;;;;;;;6.20;4.20;;;;;;;2.53;97.83;99746.50;102086;1316;76816;-77
2021/11/30 03:14:15;;;;;;;4.80;3.60;;;;;;;2.51;97.49;99747.53;102384;1303;71401;-74
2021/11/30 03:16:45;;;;;;;7.70;4.40;;;;;;;2.50;97.39;99745.34;102159;1319;71927;-76
2021/11/30 03:19:14;;;;;;;4.60;3.10;;;;;;;2.48;97.58;99741.20;103184;1304;62511;-80
2021/11/30 03:21:41;;;;;;;6.10;3.20;;;;;;;2.43;97.14;99730.60;105037;1303;62920;-78
2021/11/30 03:24:08;;;;;;;4.20;2.70;;;;;;;2.42;96.15;99734.55;105435;1302;75677;-77
2021/11/30 03:26:38;;;;;;;5.10;2.70;;;;;;;2.38;96.40;99729.73;105513;1320;72360;-77
2021/11/30 03:29:05;;;;;;;5.30;2.40;;;;;;;2.36;96.12;99729.08;104808;1318;74060;-78
2021/11/30 03:34:01;;;;;;;3.70;2.40;;;;;;;2.34;96.43;99717.36;105466;1316;61431;-77
2021/11/30 03:36:32;;;;;;;4.90;2.70;;;;;;;2.33;95.81;99719.36;104576;1304;75858;-77
2021/11/30 03:39:04;;;;;;;5.10;2.10;;;;;;;2.34;95.75;99706.40;105318;1317;73066;-76
2021/11/30 03:41:33;;;;;;;7.00;2.20;;;;;;;2.33;95.75;99701.77;105241;1322;72594;-75
2021/11/30 03:44:05;;;;;;;5.20;2.80;;;;;;;2.31;95.60;99695.15;104899;1319;61244;-75
2021/11/30 03:46:32;;;;;;;7.00;2.30;;;;;;;2.31;95.99;99685.77;105390;1316;61706;-75
2021/11/30 03:49:02;;;;;;;2.40;1.90;;;;;;;2.28;96.21;99686.39;105394;1317;75771;-75
2021/11/30 03:51:32;;;;;;;3.50;2.30;;;;;;;2.25;96.34;99677.92;105408;1316;72850;-75
2021/11/30 03:54:00;;;;;;;3.00;2.10;;;;;;;2.22;97.03;99669.17;105388;1316;73050;-76
2021/11/30 03:56:29;;;;;;;3.50;2.40;;;;;;;2.19;96.80;99671.11;105404;1316;62256;-77
2021/11/30 03:59:01;;;;;;;3.50;1.70;;;;;;;2.16;96.54;99665.91;105416;1317;60435;-78
2021/11/30 04:01:27;;;;;;;3.10;2.10;;;;;;;2.12;96.03;99657.06;105257;1316;76710;-77
2021/11/30 04:03:56;;;;;;;3.00;2.10;;;;;;;2.06;96.26;99644.84;104613;1321;71426;-76
2021/11/30 04:06:23;;;;;;;3.80;2.00;;;;;;;1.99;96.41;99640.21;105350;1316;72250;-79
2021/11/30 04:08:50;;;;;;;3.20;2.20;;;;;;;1.93;96.68;99627.23;105388;1316;61634;-77
2021/11/30 04:11:21;;;;;;;2.30;1.50;;;;;;;1.87;97.24;99612.88;105256;1318;60682;-76
2021/11/30 04:13:49;;;;;;;4.80;2.50;;;;;;;1.81;97.58;99609.14;104458;1322;75722;-76
2021/11/30 04:16:16;;;;;;;8.90;2.90;;;;;;;1.79;97.82;99594.60;105383;1315;71496;-79
2021/11/30 04:18:43;;;;;;;4.50;2.60;;;;;;;1.77;97.69;99601.93;105422;1316;74943;-76
2021/11/30 04:21:10;;;;;;;3.70;2.40;;;;;;;1.76;97.57;99576.34;105356;1315;60081;-75
2021/11/30 04:23:37;;;;;;;5.40;2.90;;;;;;;1.75;98.11;99569.46;105089;1316;60134;-76
2021/11/30 04:26:03;;;;;;;6.80;3.40;;;;;;;1.75;98.07;99557.69;105153;1319;75518;-73
2021/11/30 04:28:31;;;;;;;5.90;3.70;;;;;;;1.74;98.47;99550.60;105387;1322;72494;-73
2021/11/30 04:30:59;;;;;;;9.30;3.80;;;;;;;1.73;98.50;99541.34;105276;1316;74083;-74
2021/11/30 04:33:26;;;;;;;8.50;4.30;;;;;;;1.72;99.10;99535.14;105454;1320;62549;-73
2021/11/30 04:35:53;;;;;;;7.10;5.30;;;;;;;1.69;99.43;99532.97;105239;1316;60747;-74
2021/11/30 04:38:19;;;;;;;6.80;3.80;;;;;;;1.65;99.67;99533.20;105432;1316;75843;-75
2021/11/30 04:40:46;;;;;;;10.30;5.40;;;;;;;1.57;99.81;99529.00;105315;1319;71510;-74
2021/11/30 04:43:13;;;;;;;8.70;4.40;;;;;;;1.53;99.98;99516.69;105429;1317;74106;-73
2021/11/30 04:45:51;;;;;;;8.10;4.00;;;;;;;1.50;100.00;99513.16;105040;1316;61652;-77
2021/11/30 04:48:18;;;;;;;9.00;4.20;;;;;;;1.43;100.00;99516.55;105450;1316;61494;-75
2021/11/30 04:50:48;;;;;;;10.80;4.60;;;;;;;1.39;100.00;99500.73;105408;1315;75718;-74
2021/11/30 04:53:15;;;;;;;10.20;4.10;;;;;;;1.36;100.00;99503.69;104807;1320;71423;-74
2021/11/30 04:55:42;;;;;;;7.40;4.10;;;;;;;1.33;100.00;99504.09;105389;1316;73536;-77
2021/11/30 04:58:09;;;;;;;11.10;5.40;;;;;;;1.30;100.00;99473.71;105282;1317;61504;-73
2021/11/30 05:00:37;;;;;;;9.00;4.60;;;;;;;1.30;100.00;99475.17;105388;1317;59739;-76
2021/11/30 05:03:06;;;;;;;7.30;4.30;;;;;;;1.29;100.00;99458.56;105278;1316;75731;-75
2021/11/30 05:05:33;;;;;;;9.90;3.40;;;;;;;1.28;100.00;99455.14;105395;1316;72435;-77
2021/11/30 05:08:00;;;;;;;9.90;4.50;;;;;;;1.28;100.00;99445.73;105236;1317;74146;-75
2021/11/30 05:10:27;;;;;;;9.20;3.40;;;;;;;1.29;99.98;99444.77;105409;1316;59896;-76
2021/11/30 05:12:54;;;;;;;7.50;3.80;;;;;;;1.28;99.98;99427.09;105421;1316;61291;-75
2021/11/30 05:15:21;;;;;;;8.30;3.50;;;;;;;1.28;100.00;99420.52;105081;1320;75935;-75
2021/11/30 05:17:48;;;;;;;6.70;3.40;;;;;;;1.28;99.96;99411.98;104457;1320;71360;-77
2021/11/30 05:20:15;;;;;;;9.60;3.80;;;;;;;1.27;99.94;99414.47;104775;1316;72935;-78
2021/11/30 05:22:42;;;;;;;8.30;4.10;;;;;;;1.27;99.82;99404.01;105413;1317;62631;-79
2021/11/30 05:25:23;;;;;;;7.80;3.20;;;;;;;1.29;99.63;99392.20;105442;1317;60376;-76
2021/11/30 05:27:51;;;;;;;4.00;2.50;;;;;;;1.29;99.35;99386.05;105398;1320;75935;-75
2021/11/30 05:30:20;;;;;;;6.10;2.50;;;;;;;1.30;98.93;99372.73;105396;1316;71572;-74
2021/11/30 05:32:49;;;;;;;8.10;3.30;;;;;;;1.31;99.04;99363.20;105377;1316;73062;-73
2021/11/30 05:35:16;;;;;;;7.40;4.00;;;;;;;1.32;98.83;99363.60;105375;1317;62460;-75
2021/11/30 05:37:43;;;;;;;5.30;3.10;;;;;;;1.35;98.72;99358.34;104011;1322;60424;-76
2021/11/30 05:40:11;;;;;;;5.90;2.50;;;;;;;1.36;98.67;99354.88;105388;1316;75786;-74
2021/11/30 05:42:38;;;;;;;7.10;3.90;;;;;;;1.40;98.47;99359.08;105258;1317;71360;-75
2021/11/30 05:45:05;;;;;;;10.00;4.30;;;;;;;1.44;98.54;99346.83;105380;1316;72946;-78
2021/11/30 05:47:32;;;;;;;6.30;2.60;;;;;;;1.48;98.66;99346.83;105302;1316;59926;-76
2021/11/30 05:49:59;;;;;;;7.40;3.30;;;;;;;1.50;98.60;99347.31;105408;1316;60304;-79
2021/11/30 05:52:26;;;;;;;5.70;2.70;;;;;;;1.53;98.21;99345.27;105387;1320;75953;-76
2021/11/30 05:54:53;;;;;;;5.10;2.10;;;;;;;1.56;98.51;99341.13;105426;1319;72755;-76
2021/11/30 05:57:22;;;;;;;3.20;1.80;;;;;;;1.59;98.19;99344.98;105093;1316;73050;-76
2021/11/30 05:59:50;;;;;;;3.40;2.10;;;;;;;1.65;97.87;99344.63;105274;1320;61136;-76
2021/11/30 06:02:19;;;;;;;2.60;1.70;;;;;;;1.71;97.83;99333.23;105379;1317;60611;-78
2021/11/30 06:04:46;;;;;;;2.80;1.60;;;;;;;1.76;97.70;99329.94;105423;1319;77063;-75
2021/11/30 06:07:13;;;;;;;3.30;1.80;;;;;;;1.81;97.74;99320.41;105249;1315;71442;-77
2021/11/30 06:09:42;;;;;;;4.90;1.80;;;;;;;1.85;97.69;99319.63;105431;1317;74394;-77
2021/11/30 06:12:09;;;;;;;5.60;1.70;;;;;;;1.88;97.75;99308.48;105374;1316;61565;-76
2021/11/30 06:14:35;;;;;;;2.20;1.50;;;;;;;1.92;97.65;99316.08;105426;1317;62161;-77
2021/11/30 06:17:02;;;;;;;1.90;1.20;;;;;;;1.97;97.69;99317.42;104637;1317;74155;-78
2021/11/30 06:19:29;;;;;;;1.70;1.00;;;;;;;2.01;97.67;99320.13;104623;1322;72631;-77
2021/11/30 06:21:56;;;;;;;2.10;1.20;;;;;;;2.06;97.70;99307.73;105250;1321;72195;-77
2021/11/30 06:24:23;;;;;;;2.00;1.20;;;;;;;2.11;97.82;99291.61;105420;1317;59852;-77
2021/11/30 06:26:50;;;;;;;1.80;1.00;;;;;;;2.15;97.65;99289.61;104927;1320;456568;-80
2021/11/30 06:29:19;;;;;;;1.40;1.00;;;;;;;2.18;97.65;99281.56;105469;1316;76744;-78
2021/11/30 06:31:46;;;;;;;2.30;1.20;;;;;;;2.22;98.12;99285.73;105398;1316;72407;-78
2021/11/30 06:34:13;;;;;;;1.60;1.20;;;;;;;2.25;97.95;99291.02;105317;1316;73860;-78
2021/11/30 06:36:39;;;;;;;2.20;1.30;;;;;;;2.29;97.93;99293.90;105251;1317;61562;-78
2021/11/30 06:39:07;;;;;;;2.40;1.40;;;;;;;2.34;97.82;99293.59;105441;1317;61828;-78
2021/11/30 06:41:34;;;;;;;2.20;1.20;;;;;;;2.39;97.83;99277.27;105419;1316;75682;-78
2021/11/30 06:44:00;;;;;;;1.50;1.00;;;;;;;2.43;97.71;99283.55;105440;1317;72955;-77
2021/11/30 06:46:27;;;;;;;1.60;1.20;;;;;;;2.47;97.55;99273.23;105422;1316;72869;-80
2021/11/30 06:48:54;;;;;;;3.00;1.30;;;;;;;2.51;97.63;99275.17;105226;1320;62213;-78
2021/11/30 06:51:21;;;;;;;1.00;0.80;;;;;;;2.54;97.90;99271.03;104802;1319;60903;-77
2021/11/30 06:53:48;;;;;;;1.70;1.20;;;;;;;2.55;98.44;99286.04;104509;1320;75772;-76
2021/11/30 06:56:14;;;;;;;2.10;1.30;;;;;;;2.57;98.77;99280.05;105266;1316;72535;-75
2021/11/30 06:58:41;;;;;;;1.80;1.30;;;;;;;2.58;99.08;99274.55;105322;1316;72993;-79
2021/11/30 07:01:10;;;;;;;1.90;1.30;;;;;;;2.58;99.74;99272.81;105202;1316;61129;-76
2021/11/30 07:03:37;;;;;;;2.50;1.60;;;;;;;2.58;99.90;99275.04;104877;1317;60340;-76
2021/11/30 07:08:54;;;;;;;2.10;1.50;;;;;;;2.59;99.94;99284.38;105452;1316;71676;-78
2021/11/30 07:14:17;;;;;;;2.40;1.40;;;;;;;2.69;99.95;99269.48;104590;1322;61519;-77
2021/11/30 07:16:46;;;;;;;2.00;1.50;;;;;;;2.72;100.00;99265.47;105441;1315;60003;-76
2021/11/30 07:19:14;;;;;;;1.80;1.30;;;;;;;2.75;100.00;99270.21;105329;1316;75842;-77
2021/11/30 07:21:42;;;;;;;2.40;1.40;;;;;;;2.77;100.00;99257.92;105288;1317;72373;-78
2021/11/30 07:24:09;;;;;;;3.00;1.40;;;;;;;2.80;100.00;99246.73;105380;1315;73954;-78
2021/11/30 07:26:36;;;;;;;3.10;1.40;;;;;;;2.82;100.00;99260.16;105295;1317;61514;-79
2021/11/30 07:29:04;;;;;;;1.60;1.10;;;;;;;2.87;100.00;99261.77;105422;1314;60555;-80
2021/11/30 07:31:31;;;;;;;1.80;1.20;;;;;;;2.91;100.00;99268.36;105110;1316;76851;-80
2021/11/30 07:34:00;;;;;;;2.10;1.20;;;;;;;2.94;100.00;99260.84;105244;1317;71370;-79
2021/11/30 07:36:27;;;;;;;2.80;1.50;;;;;;;2.98;100.00;99265.75;105420;1317;74020;-79
2021/11/30 07:38:55;;;;;;;3.10;1.70;;;;;;;3.00;100.00;99258.29;105122;1318;62486;-79
2021/11/30 07:41:23;;;;;;;2.30;1.60;;;;;;;3.02;100.00;99252.86;104655;1317;60606;-79
2021/11/30 07:43:52;;;;;;;2.10;1.10;;;;;;;3.05;100.00;99239.86;105311;1315;75782;-79
2021/11/30 07:46:18;;;;;;;2.10;1.20;;;;;;;3.06;100.00;99245.10;105445;1320;71293;-79
2021/11/30 07:48:50;;;;;;;2.00;1.50;;;;;;;3.10;100.00;99238.91;105420;1316;71779;-79
2021/11/30 07:51:17;;;;;;;2.00;1.20;;;;;;;3.11;100.00;99238.98;105458;1320;59916;-79
2021/11/30 07:53:45;;;;;;;2.00;1.30;;;;;;;3.12;100.00;99225.23;105393;1316;60635;-78
2021/11/30 07:56:12;;;;;;;1.50;1.10;;;;;;;3.14;100.00;99226.83;105288;1306;74629;-78
2021/11/30 07:58:40;;;;;;;2.00;1.30;;;;;;;3.16;100.00;99221.50;105394;1313;72353;-80
2021/11/30 08:01:07;;;;;;;1.50;0.90;;;;;;;3.19;100.00;99218.09;105445;1313;73922;-79
2021/11/30 08:03:34;;;;;;;1.60;1.30;;;;;;;3.21;100.00;99221.81;105402;1313;62534;-80
2021/11/30 08:06:00;;;;;;;2.00;1.60;;;;;;;3.24;100.00;99219.40;105464;1314;60877;-80
2021/11/30 08:10:58;;;;;;;2.10;1.50;;;;;;;3.31;100.00;99225.49;105255;1301;72405;-80
2021/11/30 08:13:25;;;;;;;2.30;1.50;;;;;;;3.35;100.00;99218.94;105431;1302;71168;-78
2021/11/30 08:15:51;;;;;;;2.50;1.50;;;;;;;3.39;100.00;99216.77;105407;1316;62268;-79
2021/11/30 08:18:18;;;;;;;3.00;1.90;;;;;;;3.43;100.00;99209.20;104743;1318;61803;-78
2021/11/30 08:20:45;;;;;;;2.90;1.70;;;;;;;3.48;100.00;99206.98;105243;1315;76936;-79
2021/11/30 08:23:12;;;;;;;2.00;1.40;;;;;;;3.55;100.00;99204.64;105278;1315;71404;-79
2021/11/30 08:25:39;;;;;;;4.00;1.60;;;;;;;3.62;100.00;99204.04;104812;1316;74291;-82
2021/11/30 08:28:07;;;;;;;2.40;1.70;;;;;;;3.69;100.00;99208.11;105376;1316;63041;-78
2021/11/30 08:30:44;;;;;;;1.90;1.40;;;;;;;3.77;100.00;99197.88;105434;1317;59940;-78
2021/11/30 08:33:11;;;;;;;4.50;2.00;;;;;;;3.83;100.00;99199.63;105237;1315;75916;-77
2021/11/30 08:35:40;;;;;;;2.90;2.20;;;;;;;3.88;100.00;99198.70;104688;1316;72600;-76
2021/11/30 08:38:10;;;;;;;2.80;1.80;;;;;;;3.95;100.00;99202.05;105248;1315;72915;-78
2021/11/30 08:40:37;;;;;;;3.20;2.10;;;;;;;4.01;100.00;99194.36;105311;1316;62582;-80
2021/11/30 08:43:03;;;;;;;3.90;1.90;;;;;;;4.06;100.00;99196.38;105390;1315;60429;-80
2021/11/30 08:45:30;;;;;;;2.70;2.10;;;;;;;4.13;100.00;99206.18;105124;1317;76723;-78
2021/11/30 08:47:57;;;;;;;2.70;2.10;;;;;;;4.19;100.00;99190.09;105432;1320;70895;-79
2021/11/30 08:50:24;;;;;;;4.20;2.50;;;;;;;4.25;100.00;99195.21;105310;1316;73076;-78
2021/11/30 08:52:51;;;;;;;4.70;2.20;;;;;;;4.30;100.00;99197.19;105419;1315;61338;-78
2021/11/30 08:55:22;;;;;;;3.00;2.20;;;;;;;4.37;100.00;99197.03;105441;1315;60075;-77
2021/11/30 08:57:50;;;;;;;3.10;2.50;;;;;;;4.43;100.00;99203.73;104100;1323;76808;-80
2021/11/30 09:00:21;;;;;;;4.40;2.20;;;;;;;4.48;100.00;99197.17;104972;1316;72395;-78
2021/11/30 09:02:48;;;;;;;3.80;2.20;;;;;;;4.52;100.00;99203.54;105354;1316;72728;-78
2021/11/30 09:05:16;;;;;;;3.90;2.50;;;;;;;4.56;100.00;99209.29;105296;1316;62068;-78
2021/11/30 09:07:43;;;;;;;3.30;2.10;;;;;;;4.59;100.00;99205.17;105235;1317;60378;-78
2021/11/30 09:10:09;;;;;;;3.10;1.90;;;;;;;4.64;100.00;99210.98;104386;1316;75672;-78
2021/11/30 09:12:36;;;;;;;3.30;2.50;;;;;;;4.69;100.00;99200.89;105353;1316;72205;-81
2021/11/30 09:15:06;;;;;;;4.40;2.30;;;;;;;4.74;100.00;99195.23;104571;1320;72857;-79
2021/11/30 09:17:49;;;;;;;;;;;;;;;4.82;100.00;99201.89;104716;1320;63170;-79
2021/11/30 09:20:16;;;;;;;3.70;2.00;;;;;;;4.89;100.00;99198.86;105281;1315;60463;-77
2021/11/30 09:22:42;;;;;;;4.50;2.10;;;;;;;4.97;100.00;99202.19;105376;1317;76990;-78
2021/11/30 09:25:10;;;;;;;5.10;2.20;;;;;;;5.02;100.00;99206.45;105363;1315;71886;-80
2021/11/30 09:27:38;;;;;;;4.00;2.20;;;;;;;5.07;100.00;99206.61;105323;1316;74006;-79
2021/11/30 09:30:08;;;;;;;4.10;1.70;;;;;;;5.08;100.00;99212.77;104874;1319;63164;-76
2021/11/30 09:32:40;;;;;;;3.20;2.20;;;;;;;5.10;100.00;99228.50;105358;1317;61584;-80
2021/11/30 09:35:11;;;;;;;3.50;2.20;;;;;;;5.12;100.00;99222.86;105125;1316;75810;-76
2021/11/30 09:37:39;;;;;;;2.90;2.30;;;;;;;5.14;100.00;99211.95;105133;1316;72857;-78
2021/11/30 09:40:08;;;;;;;3.60;1.90;;;;;;;5.18;100.00;99217.63;105316;1317;74461;-76
2021/11/30 09:42:35;;;;;;;3.10;2.00;;;;;;;5.22;100.00;99208.54;105107;1317;60923;-78
2021/11/30 09:45:05;;;;;;;2.40;1.60;;;;;;;5.26;100.00;99210.24;105203;1317;59274;-76
2021/11/30 09:47:33;;;;;;;2.00;1.50;;;;;;;5.30;100.00;99208.30;105312;1316;75903;-75
2021/11/30 09:50:01;;;;;;;3.80;1.60;;;;;;;5.35;100.00;99207.77;105299;1319;71498;-77
2021/11/30 09:52:28;;;;;;;3.60;1.80;;;;;;;5.39;100.00;99205.80;105138;1318;72946;-76
2021/11/30 09:54:54;;;;;;;3.00;1.80;;;;;;;5.43;100.00;99198.66;105153;1319;62362;-77
2021/11/30 09:57:22;;;;;;;5.00;1.90;;;;;;;5.47;100.00;99216.20;105226;1315;60343;-77
2021/11/30 09:59:49;;;;;;;4.10;1.30;;;;;;;5.51;100.00;99197.14;105315;1319;75750;-76
2021/11/30 10:02:16;;;;;;;3.20;1.10;;;;;;;5.55;100.00;99190.23;105284;1316;71598;-79
2021/11/30 10:04:44;;;;;;;3.40;1.20;;;;;;;5.58;100.00;99190.40;104876;1319;72990;-78
2021/11/30 10:07:10;;;;;;;5.90;1.30;;;;;;;5.60;100.00;99189.95;105349;1319;63326;-80
2021/11/30 10:09:37;;;;;;;2.00;0.70;;;;;;;5.63;100.00;99193.63;105361;1303;61296;-78
2021/11/30 10:12:09;;;;;;;4.30;0.80;;;;;;;5.69;100.00;99195.17;105438;1303;75805;-79
2021/11/30 10:14:37;;;;;;;2.70;1.10;;;;;;;5.73;100.00;99192.77;105020;1315;71545;-78
2021/11/30 10:17:22;;;;;;;4.10;1.30;;;;;;;5.74;100.00;99187.95;104793;1316;72936;-80
2021/11/30 10:20:04;;;;;;;2.10;0.60;;;;;;;5.77;100.00;99178.50;105386;1319;62322;-79
2021/11/30 10:22:52;;;;;;;0.90;0.50;;;;;;;5.80;100.00;99188.89;105384;1316;60310;-80
2021/11/30 10:25:28;;;;;;;4.20;1.00;;;;;;;5.86;100.00;99173.39;104101;1324;77193;-81
2021/11/30 10:27:59;;;;;;;3.00;0.70;;;;;;;5.92;100.00;99171.58;105333;1316;71203;-76
2021/11/30 10:30:29;;;;;;;3.20;0.60;;;;;;;6.01;100.00;99165.80;104748;1320;74311;-77
2021/11/30 10:32:58;;;;;;;2.90;0.70;;;;;;;6.09;100.00;99167.20;105312;1316;63043;-79
2021/11/30 10:35:28;;;;;;;3.00;0.90;;;;;;;6.16;100.00;99168.30;105126;1316;60675;-79
2021/11/30 10:37:59;;;;;;;2.50;0.80;;;;;;;6.21;100.00;99170.14;105357;1316;75752;-81
2021/11/30 10:40:28;;;;;;;3.60;0.80;;;;;;;6.27;100.00;99169.65;105252;1318;71391;-82
2021/11/30 10:42:58;;;;;;;4.70;1.00;;;;;;;6.30;100.00;99173.61;104445;1316;72663;-81
2021/11/30 10:45:29;;;;;;;2.80;0.60;;;;;;;6.30;100.00;99165.15;105349;1315;61948;-81
2021/11/30 10:48:12;;;;;;;4.50;1.00;;;;;;;6.32;100.00;99176.32;105369;1320;62325;-81
2021/11/30 10:50:41;;;;;;;2.30;0.80;;;;;;;6.36;99.98;99177.48;105391;1315;75761;-79
2021/11/30 10:53:21;;;;;;;3.80;0.80;;;;;;;6.39;99.77;99184.50;105405;1319;72758;-81
2021/11/30 10:55:54;;;;;;;7.70;1.60;;;;;;;6.45;99.88;99174.40;105316;1315;72995;-81
2021/11/30 10:58:24;;;;;;;2.80;1.10;;;;;;;6.52;99.41;99180.45;105295;1316;63208;-80
2021/11/30 11:00:52;;;;;;;9.30;1.50;;;;;;;6.61;97.71;99183.67;105041;1312;60284;-80
2021/11/30 11:03:22;;;;;;;6.90;1.00;;;;;;;6.68;97.42;99189.08;105300;1319;76710;-83
2021/11/30 11:09:01;;;;;;;6.60;1.30;;;;;;;6.91;95.47;99183.83;105321;1316;72998;-81
2021/11/30 11:11:30;;;;;;;3.00;1.00;;;;;;;7.00;94.65;99185.95;105053;1318;63340;-80
2021/11/30 11:13:57;;;;;;;8.00;1.30;;;;;;;7.09;93.78;99179.50;104446;1319;60361;-77
2021/11/30 11:16:33;;;;;;;9.50;1.10;;;;;;;7.16;93.24;99201.02;105272;1320;75835;-79
2021/11/30 11:19:06;;;;;;;3.80;0.80;;;;;;;7.21;92.55;99189.91;105205;1316;72679;-77
2021/11/30 11:21:39;;;;;;;7.90;1.20;;;;;;;7.29;92.41;99185.02;105307;1317;72996;-78
2021/11/30 11:24:25;;;;;;;8.80;1.20;;;;;;;7.40;91.27;99194.33;105192;1317;62116;-75
2021/11/30 11:26:55;;;;;;;5.30;1.10;;;;;;;7.47;89.58;99204.39;104865;1316;59925;-77
2021/11/30 11:29:27;;;;;;;8.50;1.30;;;;;;;7.49;88.75;99198.73;105009;1322;76908;-78
2021/11/30 11:31:56;;;;;;;5.50;1.00;;;;;;;7.46;88.72;99189.52;105329;1315;72561;-82
2021/11/30 11:34:31;;;;;;;3.70;1.00;;;;;;;7.41;88.40;99194.98;105307;1316;71543;-79
2021/11/30 11:37:00;;;;;;;13.80;1.60;;;;;;;7.37;88.42;99192.18;104989;1318;61974;-79
2021/11/30 11:39:28;;;;;;;5.30;1.20;;;;;;;7.34;88.10;99202.23;105148;1317;60755;-76
2021/11/30 11:42:04;;;;;;;4.00;0.90;;;;;;;7.32;87.51;99199.94;105336;1316;75881;-77
2021/11/30 11:44:31;;;;;;;7.50;0.80;;;;;;;7.32;86.73;99196.16;105294;1316;72416;-79
2021/11/30 11:47:10;;;;;;;8.70;1.80;;;;;;;7.31;86.20;99212.39;105284;1320;73184;-77
2021/11/30 11:49:39;;;;;;;10.70;1.40;;;;;;;7.36;86.47;99204.11;105011;1304;62400;-77
2021/11/30 11:52:21;;;;;;;2.10;1.10;;;;;;;7.41;86.01;99192.75;105392;1305;60833;-78
2021/11/30 11:55:00;;;;;;;5.50;1.30;;;;;;;7.42;85.40;99196.77;105091;1304;77783;-79
2021/11/30 11:57:28;;;;;;;5.10;1.10;;;;;;;7.41;85.34;99191.20;105188;1311;72534;-80
2021/11/30 11:59:55;;;;;;;8.00;1.00;;;;;;;7.38;84.38;99212.13;105413;1320;71877;-77